Norfolk, Virginia
Traffic Map
Current Weather Conditions
Norfolk, Virginia
Clear
Clear
72°
Feels Like: 72°
Wind Chill: 72° Ceiling: Unl
Heat Index: 72° Visibility: 10mi
Dew Point: 57° Wind: 5mph
Humidity: 59% Direction: 250° (WSW)
Pressure: 30.18in Gusts: 0mph
Raw Report DataKORF 251251Z AUTO 25004KT 10SM CLR 22/14 A3018 RMK AO2 SLP218 T02220139 TSNO
Traffic Incident Summary
Active as of:
Severity:
Category:
InformationThere was an issue retrieving the traffic information for this location. Please try a different location or try again shortly.
Advertisements
Track Severe Weather on mobile